createdAt,value
2024-01-30T00:00:23.285Z,61.15
2024-01-30T00:03:11.329Z,62.00
2024-01-30T00:05:39.680Z,61.17
2024-01-30T00:08:08.026Z,61.15
2024-01-30T00:10:36.302Z,61.07
2024-01-30T00:13:04.992Z,61.13
2024-01-30T00:15:33.933Z,61.52
2024-01-30T00:18:02.528Z,61.31
2024-01-30T00:20:33.780Z,61.91
2024-01-30T00:23:17.406Z,62.06
2024-01-30T00:25:45.987Z,62.39
2024-01-30T00:28:14.241Z,61.92
2024-01-30T00:30:42.325Z,61.49
2024-01-30T00:33:11.155Z,61.74
2024-01-30T00:35:39.392Z,61.60
2024-01-30T00:38:09.315Z,61.98
2024-01-30T00:40:37.403Z,62.45
2024-01-30T00:43:05.685Z,62.24
2024-01-30T00:45:34.151Z,62.59
2024-01-30T00:48:02.615Z,62.09
2024-01-30T00:50:31.151Z,62.05
2024-01-30T00:52:59.479Z,61.93
2024-01-30T00:55:27.748Z,62.30
2024-01-30T00:57:55.976Z,62.53
2024-01-30T01:00:30.316Z,62.10
2024-01-30T01:02:59.208Z,62.62
2024-01-30T01:05:28.247Z,63.28
2024-01-30T01:07:56.358Z,63.21
2024-01-30T01:10:24.901Z,63.00
2024-01-30T01:12:53.185Z,62.82
2024-01-30T01:15:21.237Z,62.93
2024-01-30T01:17:50.247Z,62.60
2024-01-30T01:20:18.316Z,62.38
2024-01-30T01:22:46.679Z,62.22
2024-01-30T01:25:15.116Z,62.17
2024-01-30T01:27:44.583Z,62.16
2024-01-30T01:30:15.866Z,62.45
2024-01-30T01:32:50.464Z,62.76
2024-01-30T01:35:18.933Z,63.01
2024-01-30T01:37:46.997Z,62.60
2024-01-30T01:40:15.230Z,62.28
2024-01-30T01:42:43.544Z,62.78
2024-01-30T01:45:11.711Z,62.30
2024-01-30T01:47:40.120Z,62.26
2024-01-30T01:50:09.305Z,62.53
2024-01-30T01:52:38.602Z,62.52
2024-01-30T01:55:07.595Z,62.65
2024-01-30T01:57:36.180Z,62.38
2024-01-30T02:00:05.699Z,62.20
2024-01-30T02:02:37.135Z,62.60
2024-01-30T02:05:05.985Z,63.09
2024-01-30T02:07:34.220Z,62.75
2024-01-30T02:10:02.534Z,63.50
2024-01-30T02:12:31.127Z,63.61
2024-01-30T02:14:59.345Z,61.96
2024-01-30T02:17:27.692Z,62.88
2024-01-30T02:19:55.932Z,63.66
2024-01-30T02:22:25.308Z,63.26
2024-01-30T02:24:53.449Z,62.85
2024-01-30T02:27:22.136Z,61.90
2024-01-30T02:29:50.224Z,62.88
2024-01-30T02:32:18.323Z,62.54
2024-01-30T02:34:46.595Z,62.03
2024-01-30T02:37:14.602Z,63.05
2024-01-30T02:39:42.865Z,63.88
2024-01-30T02:42:11.031Z,64.21
2024-01-30T02:44:39.260Z,63.71
2024-01-30T02:47:07.895Z,63.62
2024-01-30T02:49:36.162Z,63.85
2024-01-30T02:52:04.912Z,63.60
2024-01-30T02:54:33.064Z,64.10
2024-01-30T02:57:01.228Z,64.16
2024-01-30T02:59:29.611Z,63.96
2024-01-30T03:01:57.775Z,63.61
2024-01-30T03:04:26.155Z,63.56
2024-01-30T03:06:54.586Z,63.11
2024-01-30T03:09:22.923Z,62.87
2024-01-30T03:11:51.088Z,62.86
2024-01-30T03:14:19.171Z,62.91
2024-01-30T03:16:47.345Z,63.09
2024-01-30T03:19:15.723Z,63.41
2024-01-30T03:21:44.162Z,63.45
2024-01-30T03:24:12.243Z,63.61
2024-01-30T03:26:40.346Z,63.26
2024-01-30T03:29:08.845Z,63.74
2024-01-30T03:31:37.301Z,63.40
2024-01-30T03:34:05.359Z,63.76
2024-01-30T03:36:36.615Z,64.01
2024-01-30T03:39:04.681Z,63.74
2024-01-30T03:41:33.107Z,63.66
2024-01-30T03:44:01.388Z,63.56
2024-01-30T03:46:29.563Z,63.38
2024-01-30T03:48:57.772Z,63.46
2024-01-30T03:51:26.084Z,63.93
2024-01-30T03:53:54.139Z,63.69
2024-01-30T03:56:22.264Z,63.86
2024-01-30T03:58:50.258Z,63.73
2024-01-30T04:01:18.586Z,64.72
2024-01-30T04:03:47.060Z,64.86
2024-01-30T04:06:15.623Z,64.45
2024-01-30T04:08:43.830Z,64.45
2024-01-30T04:11:11.917Z,64.08
2024-01-30T04:13:39.874Z,63.81
2024-01-30T04:16:08.117Z,63.41
2024-01-30T04:18:36.328Z,63.99
2024-01-30T04:21:04.565Z,64.24
2024-01-30T04:23:32.952Z,63.86
2024-01-30T04:26:01.211Z,63.85
2024-01-30T04:28:30.090Z,63.88
2024-01-30T04:30:58.186Z,63.30
2024-01-30T04:33:26.601Z,63.40
2024-01-30T04:35:54.659Z,63.07
2024-01-30T04:38:22.809Z,63.35
2024-01-30T04:40:50.779Z,63.68
2024-01-30T04:43:20.428Z,63.69
2024-01-30T04:45:49.119Z,63.86
2024-01-30T04:48:17.211Z,64.06
2024-01-30T04:50:45.516Z,63.63
2024-01-30T04:53:13.689Z,63.08
2024-01-30T04:55:42.001Z,63.65
2024-01-30T04:58:10.303Z,63.14
2024-01-30T05:00:38.655Z,62.14
2024-01-30T05:03:06.720Z,62.44
2024-01-30T05:05:35.419Z,62.98
2024-01-30T05:08:03.810Z,63.59
2024-01-30T05:10:32.096Z,62.60
2024-01-30T05:13:00.352Z,62.61
2024-01-30T05:15:28.463Z,63.23
2024-01-30T05:17:56.565Z,63.51
2024-01-30T05:20:24.829Z,64.10
2024-01-30T05:22:53.688Z,64.47
2024-01-30T05:25:21.927Z,63.81
2024-01-30T05:27:50.997Z,64.57
2024-01-30T05:30:19.296Z,64.87
2024-01-30T05:32:47.585Z,64.43
2024-01-30T05:35:15.833Z,64.10
2024-01-30T05:37:43.987Z,64.73
2024-01-30T05:40:12.769Z,64.64
2024-01-30T05:42:41.177Z,64.08
2024-01-30T05:45:09.883Z,63.92
2024-01-30T05:47:38.053Z,64.12
2024-01-30T05:50:07.629Z,64.31
2024-01-30T05:52:35.987Z,64.42
2024-01-30T05:55:04.734Z,64.51
2024-01-30T05:57:33.297Z,65.00
2024-01-30T06:00:01.350Z,65.30
2024-01-30T06:02:29.480Z,65.03
2024-01-30T06:04:57.808Z,65.16
2024-01-30T06:07:26.203Z,65.20
2024-01-30T06:09:54.811Z,64.78
2024-01-30T06:12:23.142Z,64.47
2024-01-30T06:14:51.234Z,64.90
2024-01-30T06:17:19.481Z,64.10
2024-01-30T06:19:47.629Z,64.37
2024-01-30T06:22:17.131Z,64.33
2024-01-30T06:24:46.487Z,63.94
2024-01-30T06:27:15.091Z,63.69
2024-01-30T06:29:44.747Z,63.61
2024-01-30T06:32:12.950Z,63.16
2024-01-30T06:34:42.730Z,63.58
2024-01-30T06:37:11.106Z,63.48
2024-01-30T06:39:39.188Z,63.61
2024-01-30T06:42:07.578Z,63.96
2024-01-30T06:44:36.178Z,63.94
2024-01-30T06:47:04.809Z,64.03
2024-01-30T06:49:32.928Z,64.33
2024-01-30T06:52:01.147Z,64.32
2024-01-30T06:54:29.571Z,63.85
2024-01-30T06:56:58.040Z,63.98
2024-01-30T06:59:26.523Z,63.72
2024-01-30T07:01:54.962Z,63.54
2024-01-30T07:04:23.420Z,63.77
2024-01-30T07:06:51.702Z,63.70
2024-01-30T07:09:20.131Z,62.87
2024-01-30T07:11:48.219Z,62.91
2024-01-30T07:14:16.382Z,63.38
2024-01-30T07:16:45.168Z,63.25
2024-01-30T07:19:13.466Z,63.19
2024-01-30T07:21:42.059Z,62.55
2024-01-30T07:24:10.396Z,62.74
2024-01-30T07:26:38.672Z,62.55
2024-01-30T07:29:06.859Z,62.63
2024-01-30T07:31:35.039Z,62.25
2024-01-30T07:34:03.871Z,61.79
2024-01-30T07:36:32.290Z,61.79
2024-01-30T07:39:00.617Z,62.06
2024-01-30T07:41:28.868Z,62.52
2024-01-30T07:43:57.216Z,62.28
2024-01-30T07:46:25.567Z,62.49
2024-01-30T07:48:55.419Z,62.51
2024-01-30T07:51:23.988Z,62.35
2024-01-30T07:53:52.188Z,61.59
2024-01-30T07:56:20.545Z,61.26
2024-01-30T07:58:48.739Z,61.28
2024-01-30T08:01:17.439Z,60.35
2024-01-30T08:03:45.926Z,60.48
2024-01-30T08:06:14.242Z,60.60
2024-01-30T08:08:42.446Z,61.09
2024-01-30T08:11:10.808Z,60.92
2024-01-30T08:13:38.799Z,60.83
2024-01-30T08:16:07.433Z,60.74
2024-01-30T08:18:35.678Z,60.52
2024-01-30T08:21:04.273Z,61.35
2024-01-30T08:23:32.299Z,60.45
2024-01-30T08:26:00.586Z,60.07
2024-01-30T08:28:29.874Z,60.09
2024-01-30T08:30:58.539Z,59.67
2024-01-30T08:33:27.167Z,59.11
2024-01-30T08:35:55.542Z,59.10
2024-01-30T08:38:23.804Z,59.36
2024-01-30T08:40:52.223Z,58.87
2024-01-30T08:43:20.547Z,58.85
2024-01-30T08:45:48.947Z,58.77
2024-01-30T08:48:17.226Z,58.27
2024-01-30T08:50:45.934Z,58.39
2024-01-30T08:53:14.181Z,57.97
2024-01-30T08:55:42.662Z,57.96
2024-01-30T08:58:11.088Z,57.97
2024-01-30T09:00:39.250Z,58.17
2024-01-30T09:03:07.932Z,57.96
2024-01-30T09:05:36.277Z,57.97
2024-01-30T09:08:05.139Z,57.56
2024-01-30T09:10:33.272Z,57.39
2024-01-30T09:13:01.751Z,57.16
2024-01-30T09:15:29.933Z,57.06
2024-01-30T09:17:58.082Z,57.15
2024-01-30T09:20:26.089Z,57.17
2024-01-30T09:22:54.232Z,57.15
2024-01-30T09:25:22.565Z,57.14
2024-01-30T09:27:51.080Z,57.47
2024-01-30T09:30:19.364Z,57.25
2024-01-30T09:32:47.660Z,57.08
2024-01-30T09:35:16.180Z,56.77
2024-01-30T09:37:44.808Z,56.55
2024-01-30T09:40:13.435Z,56.27
2024-01-30T09:42:44.047Z,55.58
2024-01-30T09:45:14.981Z,55.20
2024-01-30T09:47:44.918Z,54.87
2024-01-30T09:50:17.238Z,54.74
2024-01-30T09:52:46.106Z,54.25
2024-01-30T09:55:14.712Z,54.21
2024-01-30T09:57:45.067Z,53.78
2024-01-30T10:00:13.524Z,53.75
2024-01-30T10:02:42.404Z,53.53
2024-01-30T10:05:11.034Z,52.89
2024-01-30T10:07:39.538Z,52.29
2024-01-30T10:10:08.459Z,51.61
2024-01-30T10:12:36.744Z,51.17
2024-01-30T10:15:09.528Z,50.95
2024-01-30T10:17:39.585Z,50.19
2024-01-30T10:20:09.190Z,49.33
2024-01-30T10:22:37.627Z,48.47
2024-01-30T10:25:07.023Z,48.10
2024-01-30T10:27:35.377Z,47.66
2024-01-30T10:30:05.417Z,46.57
2024-01-30T10:32:33.735Z,46.08
2024-01-30T10:35:02.265Z,44.77
2024-01-30T10:37:33.409Z,44.07
2024-01-30T10:40:07.829Z,43.54
2024-01-30T10:42:38.519Z,42.89
2024-01-30T10:45:14.027Z,42.49
2024-01-30T10:47:50.069Z,42.13
2024-01-30T10:50:18.609Z,41.34
2024-01-30T10:52:47.965Z,40.93
2024-01-30T10:55:17.311Z,40.47
2024-01-30T10:57:45.529Z,39.73
2024-01-30T11:00:18.910Z,39.02
2024-01-30T11:02:48.850Z,37.97
2024-01-30T11:05:30.470Z,37.09
2024-01-30T11:08:12.442Z,36.26
2024-01-30T11:10:49.986Z,35.46
2024-01-30T11:13:20.676Z,34.60
2024-01-30T11:15:49.841Z,34.25
2024-01-30T11:18:31.008Z,33.92
2024-01-30T11:21:03.435Z,32.47
2024-01-30T11:23:32.379Z,30.88
2024-01-30T11:26:01.689Z,28.67
2024-01-30T11:28:38.773Z,25.96
2024-01-30T11:31:13.020Z,22.32
2024-01-30T11:33:41.269Z,19.84
2024-01-30T11:36:10.254Z,17.09
2024-01-30T11:38:38.331Z,14.74
2024-01-30T11:41:07.441Z,12.49
2024-01-30T11:43:36.612Z,11.89
2024-01-30T11:46:08.698Z,9.24
2024-01-30T11:48:37.369Z,9.23
2024-01-30T11:51:05.692Z,7.83
2024-01-30T11:53:34.016Z,7.00
2024-01-30T11:56:04.982Z,6.63
2024-01-30T11:58:33.231Z,6.30
2024-01-30T12:01:02.086Z,6.13
2024-01-30T12:03:30.297Z,5.82
2024-01-30T12:06:00.153Z,5.39
2024-01-30T12:08:29.364Z,4.95
2024-01-30T12:11:00.138Z,5.01
2024-01-30T12:13:33.129Z,5.02
2024-01-30T12:16:03.229Z,4.82
2024-01-30T12:18:32.150Z,3.99
2024-01-30T12:21:01.798Z,3.80
2024-01-30T12:23:30.821Z,4.19
2024-01-30T12:25:59.218Z,4.06
2024-01-30T12:28:28.256Z,3.91
2024-01-30T12:31:04.492Z,3.47
2024-01-30T12:33:33.528Z,3.47
2024-01-30T12:36:06.241Z,3.37
2024-01-30T12:38:34.607Z,3.22
2024-01-30T12:41:03.132Z,2.95
2024-01-30T12:43:37.792Z,3.03
2024-01-30T12:46:08.826Z,3.09
2024-01-30T12:48:37.363Z,2.63
2024-01-30T12:51:06.227Z,2.68
2024-01-30T12:53:34.673Z,2.54
2024-01-30T12:56:02.908Z,2.33
2024-01-30T12:58:31.297Z,2.18
2024-01-30T13:00:59.977Z,2.31
2024-01-30T13:03:28.532Z,2.52
2024-01-30T13:05:57.058Z,2.46
2024-01-30T13:08:25.587Z,2.29
2024-01-30T13:10:54.144Z,2.02
2024-01-30T13:13:22.523Z,2.13
2024-01-30T13:15:50.627Z,2.13
2024-01-30T13:18:19.076Z,2.06
2024-01-30T13:20:47.633Z,2.06
2024-01-30T13:23:15.995Z,2.10
2024-01-30T13:25:44.106Z,2.34
2024-01-30T13:28:12.160Z,2.32
2024-01-30T13:30:40.442Z,2.27
2024-01-30T13:33:08.730Z,2.36
2024-01-30T13:35:36.961Z,2.38
2024-01-30T13:38:05.337Z,2.34
2024-01-30T13:40:33.846Z,2.40
2024-01-30T13:43:02.413Z,2.40
2024-01-30T13:45:30.942Z,2.40
2024-01-30T13:48:00.419Z,2.60
2024-01-30T13:50:29.597Z,2.45
2024-01-30T13:52:57.960Z,2.77
2024-01-30T13:55:27.285Z,2.94
2024-01-30T13:57:57.260Z,2.84
2024-01-30T14:00:27.000Z,2.73
2024-01-30T14:02:56.279Z,2.72
2024-01-30T14:05:25.215Z,3.04
2024-01-30T14:07:53.970Z,2.89
2024-01-30T14:10:22.714Z,3.02
2024-01-30T14:12:50.671Z,3.26
2024-01-30T14:15:27.578Z,3.34
2024-01-30T14:17:57.961Z,3.39
2024-01-30T14:20:27.888Z,3.47
2024-01-30T14:22:57.598Z,3.44
2024-01-30T14:25:26.180Z,3.46
2024-01-30T14:27:54.887Z,3.53
2024-01-30T14:30:24.017Z,3.84
2024-01-30T14:32:52.377Z,3.79
2024-01-30T14:35:21.786Z,4.13
2024-01-30T14:37:51.463Z,4.27
2024-01-30T14:40:21.116Z,4.38
2024-01-30T14:42:49.739Z,4.43
2024-01-30T14:45:18.111Z,4.53
2024-01-30T14:47:47.184Z,4.80
2024-01-30T14:50:18.069Z,4.83
2024-01-30T14:52:47.006Z,4.95
2024-01-30T14:55:15.674Z,5.05
2024-01-30T14:57:46.360Z,5.42
2024-01-30T15:00:17.044Z,5.61
2024-01-30T15:02:48.179Z,5.88
2024-01-30T15:05:16.683Z,5.96
2024-01-30T15:07:45.728Z,6.32
2024-01-30T15:10:14.465Z,6.58
2024-01-30T15:12:42.758Z,6.88
2024-01-30T15:15:11.793Z,7.36
2024-01-30T15:17:40.810Z,7.52
2024-01-30T15:20:10.232Z,7.93
2024-01-30T15:22:39.125Z,8.32
2024-01-30T15:25:07.968Z,8.87
2024-01-30T15:27:36.127Z,9.39
2024-01-30T15:30:05.688Z,9.78
2024-01-30T15:32:34.123Z,10.79
2024-01-30T15:35:05.880Z,11.90
2024-01-30T15:37:34.760Z,12.94
2024-01-30T15:40:03.946Z,13.99
2024-01-30T15:42:32.272Z,15.10
2024-01-30T15:45:00.446Z,16.30
2024-01-30T15:47:28.849Z,17.25
2024-01-30T15:49:57.142Z,18.21
2024-01-30T15:52:25.568Z,19.27
2024-01-30T15:54:53.840Z,20.30
2024-01-30T15:57:22.166Z,21.30
2024-01-30T15:59:50.339Z,22.39
2024-01-30T16:02:19.718Z,23.14
2024-01-30T16:04:48.599Z,24.00
2024-01-30T16:07:19.759Z,24.90
2024-01-30T16:09:48.110Z,25.34
2024-01-30T16:12:16.412Z,25.91
2024-01-30T16:14:44.794Z,26.47
2024-01-30T16:17:13.821Z,27.28
2024-01-30T16:19:42.357Z,28.11
2024-01-30T16:22:10.644Z,28.89
2024-01-30T16:24:38.830Z,29.89
2024-01-30T16:27:07.314Z,30.42
2024-01-30T16:29:37.010Z,31.62
2024-01-30T16:32:05.682Z,32.47
2024-01-30T16:34:33.801Z,32.97
2024-01-30T16:37:02.372Z,33.84
2024-01-30T16:39:31.430Z,34.28
2024-01-30T16:41:59.942Z,35.19
2024-01-30T16:44:28.312Z,35.36
2024-01-30T16:46:56.590Z,34.99
2024-01-30T16:49:25.163Z,36.01
2024-01-30T16:51:53.367Z,36.60
2024-01-30T16:54:21.616Z,36.83
2024-01-30T16:56:49.898Z,37.37
2024-01-30T16:59:20.045Z,37.89
2024-01-30T17:01:51.183Z,36.73
2024-01-30T17:04:22.695Z,38.58
2024-01-30T17:06:51.888Z,38.81
2024-01-30T17:09:20.026Z,38.48
2024-01-30T17:11:48.249Z,38.45
2024-01-30T17:14:18.124Z,39.51
2024-01-30T17:16:50.237Z,39.29
2024-01-30T17:19:23.082Z,40.23
2024-01-30T17:21:51.839Z,39.89
2024-01-30T17:24:21.868Z,40.65
2024-01-30T17:26:53.970Z,42.41
2024-01-30T17:29:22.574Z,43.09
2024-01-30T17:31:51.491Z,44.76
2024-01-30T17:34:19.927Z,44.31
2024-01-30T17:36:48.119Z,44.93
2024-01-30T17:39:16.384Z,45.41
2024-01-30T17:41:44.971Z,44.88
2024-01-30T17:44:14.796Z,44.32
2024-01-30T17:46:43.504Z,44.48
2024-01-30T17:49:12.042Z,45.04
2024-01-30T17:51:41.863Z,45.62
2024-01-30T17:54:10.050Z,45.09
2024-01-30T17:56:38.194Z,44.76
2024-01-30T17:59:06.448Z,45.37
2024-01-30T18:01:35.066Z,46.26
2024-01-30T18:04:03.431Z,46.84
2024-01-30T18:06:32.053Z,47.47
2024-01-30T18:09:00.231Z,47.96
2024-01-30T18:11:28.597Z,47.99
2024-01-30T18:13:57.380Z,47.65
2024-01-30T18:16:25.997Z,47.30
2024-01-30T18:18:54.337Z,47.15
2024-01-30T18:21:22.874Z,47.19
2024-01-30T18:23:50.976Z,48.20
2024-01-30T18:26:19.049Z,48.90
2024-01-30T18:28:47.093Z,48.63
2024-01-30T18:31:16.509Z,48.68
2024-01-30T18:33:46.937Z,49.38
2024-01-30T18:36:15.441Z,49.38
2024-01-30T18:38:43.556Z,49.37
2024-01-30T18:41:11.894Z,49.39
2024-01-30T18:43:40.102Z,49.70
2024-01-30T18:46:10.019Z,50.00
2024-01-30T18:48:39.015Z,49.42
2024-01-30T18:51:07.794Z,49.33
2024-01-30T18:53:35.963Z,49.93
2024-01-30T18:56:06.743Z,49.60
2024-01-30T18:58:34.767Z,50.12
2024-01-30T19:01:03.970Z,50.74
2024-01-30T19:03:32.990Z,50.35
2024-01-30T19:06:01.686Z,49.52
2024-01-30T19:08:30.330Z,50.31
2024-01-30T19:10:58.626Z,50.52
2024-01-30T19:13:26.914Z,50.46
2024-01-30T19:15:56.221Z,51.02
2024-01-30T19:18:24.780Z,51.34
2024-01-30T19:20:53.317Z,51.60
2024-01-30T19:23:21.688Z,51.50
2024-01-30T19:25:50.139Z,51.46
2024-01-30T19:28:18.421Z,51.81
2024-01-30T19:30:46.752Z,51.05
2024-01-30T19:33:14.927Z,51.31
2024-01-30T19:35:43.247Z,52.04
2024-01-30T19:38:14.524Z,51.86
2024-01-30T19:40:43.629Z,52.05
2024-01-30T19:43:11.946Z,51.39
2024-01-30T19:45:40.187Z,52.10
2024-01-30T19:48:08.997Z,52.51
2024-01-30T19:50:37.374Z,52.96
2024-01-30T19:53:05.649Z,52.86
2024-01-30T19:55:33.938Z,52.11
2024-01-30T19:58:06.130Z,52.46
2024-01-30T20:00:34.254Z,52.72
2024-01-30T20:03:02.424Z,53.08
2024-01-30T20:05:31.073Z,53.34
2024-01-30T20:07:59.201Z,53.56
2024-01-30T20:10:27.622Z,53.54
2024-01-30T20:12:55.954Z,53.90
2024-01-30T20:15:24.292Z,53.86
2024-01-30T20:17:52.741Z,53.93
2024-01-30T20:20:21.910Z,54.36
2024-01-30T20:22:50.769Z,53.76
2024-01-30T20:25:20.347Z,54.44
2024-01-30T20:27:49.464Z,53.80
2024-01-30T20:30:19.070Z,54.26
2024-01-30T20:32:48.323Z,54.98
2024-01-30T20:35:19.965Z,55.08
2024-01-30T20:37:50.526Z,54.53
2024-01-30T20:40:18.885Z,55.43
2024-01-30T20:42:48.852Z,55.15
2024-01-30T20:45:21.740Z,54.34
2024-01-30T20:47:50.720Z,54.08
2024-01-30T20:50:20.865Z,54.45
2024-01-30T20:52:49.946Z,55.02
2024-01-30T20:55:18.449Z,55.23
2024-01-30T20:57:50.003Z,55.36
2024-01-30T21:00:19.030Z,55.55
2024-01-30T21:02:48.915Z,55.98
2024-01-30T21:05:23.893Z,55.94
2024-01-30T21:07:54.679Z,55.63
2024-01-30T21:10:23.376Z,55.81
2024-01-30T21:12:52.537Z,55.72
2024-01-30T21:15:20.971Z,55.65
2024-01-30T21:17:53.882Z,56.26
2024-01-30T21:20:24.508Z,55.73
2024-01-30T21:22:55.496Z,55.85
2024-01-30T21:25:23.875Z,55.80
2024-01-30T21:27:52.863Z,55.75
2024-01-30T21:30:22.356Z,55.76
2024-01-30T21:32:53.861Z,55.93
2024-01-30T21:35:25.585Z,55.42
2024-01-30T21:37:59.306Z,56.33
2024-01-30T21:40:30.116Z,56.31
2024-01-30T21:42:59.212Z,56.65
2024-01-30T21:45:27.569Z,57.01
2024-01-30T21:47:55.824Z,55.90
2024-01-30T21:50:24.451Z,55.51
2024-01-30T21:52:53.418Z,55.94
2024-01-30T21:55:22.144Z,56.16
2024-01-30T21:57:50.386Z,56.69
2024-01-30T22:00:19.232Z,56.44
2024-01-30T22:02:47.808Z,56.69
2024-01-30T22:05:16.463Z,56.68
2024-01-30T22:07:44.863Z,56.61
2024-01-30T22:10:13.746Z,56.45
2024-01-30T22:12:42.086Z,56.21
2024-01-30T22:15:14.195Z,55.70
2024-01-30T22:17:44.819Z,56.32
2024-01-30T22:20:12.965Z,56.61
2024-01-30T22:22:41.514Z,56.39
2024-01-30T22:25:10.075Z,56.89
2024-01-30T22:27:39.848Z,57.08
2024-01-30T22:30:08.741Z,57.27
2024-01-30T22:32:37.937Z,56.27
2024-01-30T22:35:11.757Z,56.84
2024-01-30T22:37:41.171Z,56.97
2024-01-30T22:40:10.166Z,56.47
2024-01-30T22:42:38.334Z,57.08
2024-01-30T22:45:07.345Z,57.30
2024-01-30T22:47:35.429Z,56.84
2024-01-30T22:50:05.456Z,55.91
2024-01-30T22:52:33.704Z,56.36
2024-01-30T22:55:03.171Z,57.03
2024-01-30T22:57:33.284Z,57.43
2024-01-30T23:00:02.554Z,57.79
2024-01-30T23:02:30.795Z,58.11
2024-01-30T23:04:59.143Z,57.90
2024-01-30T23:07:28.654Z,58.09
2024-01-30T23:09:57.251Z,57.34
2024-01-30T23:12:25.706Z,57.48
2024-01-30T23:14:53.974Z,57.28
2024-01-30T23:17:22.632Z,57.29
2024-01-30T23:19:51.010Z,58.14
2024-01-30T23:22:19.347Z,58.62
2024-01-30T23:24:47.422Z,56.80
2024-01-30T23:27:16.377Z,57.78
2024-01-30T23:29:44.504Z,58.42
2024-01-30T23:32:17.153Z,57.71
2024-01-30T23:34:50.372Z,58.19
2024-01-30T23:37:20.415Z,57.67
2024-01-30T23:39:50.982Z,58.07
2024-01-30T23:42:19.564Z,58.17
2024-01-30T23:44:47.769Z,57.68
2024-01-30T23:47:16.060Z,58.48
2024-01-30T23:49:44.392Z,58.59
2024-01-30T23:52:12.605Z,58.57
2024-01-30T23:54:40.840Z,58.60
2024-01-30T23:57:09.212Z,58.63
2024-01-30T23:59:38.010Z,58.61
